createdAt,value
2018-12-21T00:01:04.503Z,18.19
2018-12-21T00:06:59.480Z,17.57
2018-12-21T00:12:54.497Z,13.43
2018-12-21T00:18:49.496Z,11.88
2018-12-21T00:24:44.482Z,14.13
2018-12-21T00:30:39.471Z,11.54
2018-12-21T00:36:34.475Z,10.32
2018-12-21T00:42:29.489Z,11.3
2018-12-21T00:48:24.496Z,11.37
2018-12-21T00:54:19.498Z,11.9
2018-12-21T01:00:14.490Z,11.35
2018-12-21T01:06:09.515Z,13.08
2018-12-21T01:12:04.511Z,13.66
2018-12-21T01:17:59.517Z,14.67
2018-12-21T01:23:54.506Z,15.86
2018-12-21T01:29:49.524Z,16.23
2018-12-21T01:35:44.502Z,18.61
2018-12-21T01:41:39.562Z,22.83
2018-12-21T01:47:34.578Z,21.29
2018-12-21T01:53:29.549Z,21.5
2018-12-21T01:59:24.569Z,23.43
2018-12-21T02:05:19.595Z,23.76
2018-12-21T02:11:14.583Z,21.9
2018-12-21T02:17:09.543Z,19.99
2018-12-21T02:23:04.539Z,30.18
2018-12-21T02:28:59.534Z,35.75
2018-12-21T02:34:54.596Z,36.51
2018-12-21T02:40:49.554Z,33.9
2018-12-21T02:46:44.602Z,32.38
2018-12-21T02:52:39.548Z,31.13
2018-12-21T02:58:34.561Z,31.87
2018-12-21T03:04:29.557Z,31.46
2018-12-21T03:10:24.553Z,30.2
2018-12-21T03:16:19.587Z,30.82
2018-12-21T03:22:15.233Z,28.31
2018-12-21T03:28:09.588Z,32.28
2018-12-21T03:34:04.567Z,30.26
2018-12-21T03:39:59.601Z,28.2
2018-12-21T03:45:54.599Z,27.46
2018-12-21T03:51:49.605Z,27.14
2018-12-21T03:57:44.618Z,25.42
2018-12-21T04:03:39.579Z,27.13
2018-12-21T04:09:34.652Z,23.91
2018-12-21T04:15:29.592Z,24.7
2018-12-21T04:21:24.588Z,23.63
2018-12-21T04:27:19.644Z,24.37
2018-12-21T04:33:14.628Z,24.3
2018-12-21T04:39:09.627Z,23.77
2018-12-21T04:45:04.601Z,36.94
2018-12-21T04:50:59.622Z,37.63
2018-12-21T04:56:54.643Z,36.88
2018-12-21T05:02:49.635Z,36.77
2018-12-21T05:08:44.624Z,37.2
2018-12-21T05:14:39.661Z,34.97
2018-12-21T05:20:34.639Z,31.31
2018-12-21T05:26:29.618Z,34.5
2018-12-21T05:32:24.625Z,36.85
2018-12-21T05:38:19.621Z,32.42
2018-12-21T05:44:14.636Z,32.09
2018-12-21T05:50:09.642Z,29.9
2018-12-21T05:56:04.704Z,33.21
2018-12-21T06:01:59.628Z,27.31
2018-12-21T06:07:54.649Z,24.64
2018-12-21T06:13:49.660Z,26.78
2018-12-21T06:19:44.649Z,28.92
2018-12-21T06:25:39.660Z,28.06
2018-12-21T06:31:34.658Z,25.47
2018-12-21T06:37:29.680Z,28.56
2018-12-21T06:43:24.663Z,24.23
2018-12-21T06:49:19.711Z,25.01
2018-12-21T06:55:14.700Z,20.42
2018-12-21T07:01:09.660Z,19.38
2018-12-21T07:07:04.687Z,22.55
2018-12-21T07:12:59.681Z,22.58
2018-12-21T07:18:54.666Z,19.72
2018-12-21T07:24:49.693Z,17.42
2018-12-21T07:30:44.689Z,16.1
2018-12-21T07:36:39.742Z,21.09
2018-12-21T07:42:34.707Z,36.93
2018-12-21T07:48:29.698Z,45.09
2018-12-21T07:54:24.719Z,52.58
2018-12-21T08:00:19.736Z,49.23
2018-12-21T08:06:14.718Z,39.66
2018-12-21T08:12:09.701Z,48.69
2018-12-21T08:18:04.744Z,55.12
2018-12-21T08:23:59.732Z,61.54
2018-12-21T08:29:54.714Z,59.19
2018-12-21T08:35:49.720Z,55.92
2018-12-21T08:41:45.068Z,46.42
2018-12-21T08:47:39.721Z,46.65
2018-12-21T08:53:34.731Z,58.8
2018-12-21T08:59:29.769Z,53.37
2018-12-21T09:05:24.731Z,52.9
2018-12-21T09:11:19.782Z,57.56
2018-12-21T09:17:14.763Z,58.48
2018-12-21T09:23:09.722Z,54.62
2018-12-21T09:29:04.731Z,51.53
2018-12-21T09:34:59.741Z,51.98
2018-12-21T09:40:54.748Z,52.61
2018-12-21T09:46:49.866Z,52.79
2018-12-21T09:52:44.781Z,52.88
2018-12-21T09:58:39.797Z,56.09
2018-12-21T10:04:34.776Z,57.26
2018-12-21T10:10:29.803Z,58.69
2018-12-21T10:16:24.756Z,68.93
2018-12-21T10:22:19.788Z,70.05
2018-12-21T10:28:14.800Z,72.81
2018-12-21T10:34:09.793Z,64.74
2018-12-21T10:40:04.789Z,73
2018-12-21T10:45:59.795Z,67.62
2018-12-21T10:51:54.796Z,65.05
2018-12-21T10:57:49.797Z,60.06
2018-12-21T11:03:44.783Z,61.6
2018-12-21T11:09:39.825Z,54.93
2018-12-21T11:15:34.872Z,66.52
2018-12-21T11:21:29.854Z,61.7
2018-12-21T11:27:24.788Z,62.12
2018-12-21T11:33:19.791Z,73.39
2018-12-21T11:39:14.875Z,72.13
2018-12-21T11:45:09.826Z,60.85
2018-12-21T11:51:04.849Z,68.66
2018-12-21T11:56:59.825Z,74.91
2018-12-21T12:02:54.833Z,72.53
2018-12-21T12:08:49.834Z,79.06
2018-12-21T12:14:44.828Z,77.1
2018-12-21T12:20:39.829Z,66.88
2018-12-21T12:26:34.852Z,61.06
2018-12-21T12:32:29.840Z,56.07
2018-12-21T12:38:24.922Z,53.62
2018-12-21T12:44:19.865Z,63.72
2018-12-21T12:50:14.881Z,63.43
2018-12-21T12:56:09.915Z,60.43
2018-12-21T13:02:04.852Z,63.53
2018-12-21T13:07:59.896Z,64.07
2018-12-21T13:13:54.860Z,70.91
2018-12-21T13:19:49.874Z,64.24
2018-12-21T13:25:44.866Z,62.78
2018-12-21T13:31:39.873Z,62.51
2018-12-21T13:37:34.924Z,63.07
2018-12-21T13:43:29.871Z,58.37
2018-12-21T13:49:24.897Z,57.21
2018-12-21T13:55:20.616Z,56.1
2018-12-21T14:01:14.921Z,55
2018-12-21T14:07:09.883Z,54.99
2018-12-21T14:13:04.927Z,51.25
2018-12-21T14:18:59.928Z,48.83
2018-12-21T14:24:54.921Z,51.09
2018-12-21T14:30:49.902Z,50.15
2018-12-21T14:36:44.951Z,46.58
2018-12-21T14:42:39.899Z,43.79
2018-12-21T14:48:34.933Z,41.09
2018-12-21T14:54:29.936Z,48.01
2018-12-21T15:00:24.958Z,52.31
2018-12-21T15:06:19.937Z,61.1
2018-12-21T15:12:14.916Z,46.86
2018-12-21T15:18:09.925Z,49.76
2018-12-21T15:24:04.939Z,52.27
2018-12-21T15:29:59.934Z,56.75
2018-12-21T15:35:54.934Z,51.2
2018-12-21T15:41:49.953Z,49.2
2018-12-21T15:47:44.944Z,43.33
2018-12-21T15:53:39.943Z,64.23
2018-12-21T15:59:34.965Z,50.54
2018-12-21T16:05:29.943Z,56.08
2018-12-21T16:11:24.976Z,44.68
2018-12-21T16:17:19.962Z,40.88
2018-12-21T16:23:14.975Z,43.26
2018-12-21T16:29:09.981Z,43.99
2018-12-21T16:35:04.969Z,53
2018-12-21T16:40:59.973Z,70.1
2018-12-21T16:46:54.978Z,68.56
2018-12-21T16:52:49.988Z,64.57
2018-12-21T16:58:44.972Z,50.71
2018-12-21T17:04:39.991Z,78.64
2018-12-21T17:10:35.000Z,54.07
2018-12-21T17:16:29.999Z,55.31
2018-12-21T17:22:24.975Z,44.22
2018-12-21T17:28:20.001Z,38.48
2018-12-21T17:34:14.996Z,35.71
2018-12-21T17:40:09.992Z,36.47
2018-12-21T17:46:05.020Z,39.7
2018-12-21T17:52:01.437Z,50.32
2018-12-21T17:57:55.054Z,44.19
2018-12-21T18:03:50.035Z,39.92
2018-12-21T18:09:45.031Z,40.35
2018-12-21T18:15:40.038Z,42.9
2018-12-21T18:21:35.103Z,40.76
2018-12-21T18:27:30.077Z,32.04
2018-12-21T18:33:25.043Z,38.19
2018-12-21T18:39:20.082Z,34.05
2018-12-21T18:45:15.175Z,40.44
2018-12-21T18:51:10.057Z,59.85
2018-12-21T18:57:05.051Z,40.11
2018-12-21T19:03:00.057Z,41.16
2018-12-21T19:08:55.065Z,40.42
2018-12-21T19:14:50.039Z,34.88
2018-12-21T19:20:45.092Z,28.06
2018-12-21T19:26:40.076Z,32.97
2018-12-21T19:32:35.067Z,31.86
2018-12-21T19:38:30.081Z,33.47
2018-12-21T19:44:25.093Z,23.32
2018-12-21T19:50:20.148Z,23.4
2018-12-21T19:56:15.174Z,28.24
2018-12-21T20:02:10.070Z,22.41
2018-12-21T20:08:05.095Z,19.51
2018-12-21T20:14:00.129Z,14.83
2018-12-21T20:19:55.089Z,20.63
2018-12-21T20:25:50.182Z,20.07
2018-12-21T20:31:45.114Z,28.69
2018-12-21T20:37:40.105Z,12.72
2018-12-21T20:43:35.109Z,10.77
2018-12-21T20:49:30.114Z,10.34
2018-12-21T20:55:25.148Z,10.81
2018-12-21T21:01:20.131Z,10.68
2018-12-21T21:07:15.114Z,7.92
2018-12-21T21:13:10.123Z,9.13
2018-12-21T21:19:05.178Z,10.53
2018-12-21T21:25:00.300Z,16.35
2018-12-21T21:30:55.120Z,14.14
2018-12-21T21:36:50.172Z,10.28
2018-12-21T21:42:45.173Z,7.52
2018-12-21T21:48:40.191Z,4.84
2018-12-21T21:54:37.841Z,5.22
2018-12-21T22:00:30.163Z,5.29
2018-12-21T22:06:25.213Z,5.86
2018-12-21T22:12:20.164Z,5.62
2018-12-21T22:18:15.176Z,6.65
2018-12-21T22:24:10.156Z,4.93
2018-12-21T22:30:05.157Z,6.28
2018-12-21T22:36:00.152Z,4.83
2018-12-21T22:41:55.180Z,4.46
2018-12-21T22:47:50.179Z,4.93
2018-12-21T22:53:45.187Z,3.51
2018-12-21T22:59:40.204Z,3.18
2018-12-21T23:05:35.218Z,3.78
2018-12-21T23:11:30.237Z,3.27
2018-12-21T23:17:25.195Z,3.67
2018-12-21T23:23:20.187Z,4.44
2018-12-21T23:29:15.201Z,4.17
2018-12-21T23:35:10.197Z,5.11
2018-12-21T23:41:05.198Z,4.31
2018-12-21T23:47:00.223Z,4.43
2018-12-21T23:52:55.227Z,4.62
2018-12-21T23:58:50.237Z,4.06
